sensor_id;sensor_type;location;lat;lon;timestamp;pressure;altitude;pressure_sealevel;temperature;humidity
27840;BME280;15207;42.182;24.308;2023-12-20T00:01:01;99646.06;;;1.15;100.00
27840;BME280;15207;42.182;24.308;2023-12-20T00:03:26;99641.28;;;1.01;100.00
27840;BME280;15207;42.182;24.308;2023-12-20T00:05:52;99634.06;;;1.06;100.00
27840;BME280;15207;42.182;24.308;2023-12-20T00:08:17;99638.03;;;0.65;100.00
27840;BME280;15207;42.182;24.308;2023-12-20T00:10:45;99637.59;;;1.05;100.00
27840;BME280;15207;42.182;24.308;2023-12-20T00:13:11;99636.84;;;1.01;100.00
27840;BME280;15207;42.182;24.308;2023-12-20T00:15:36;99636.75;;;1.30;100.00
27840;BME280;15207;42.182;24.308;2023-12-20T00:18:02;99634.75;;;1.37;100.00
27840;BME280;15207;42.182;24.308;2023-12-20T00:20:28;99629.97;;;1.48;100.00
27840;BME280;15207;42.182;24.308;2023-12-20T00:22:57;99641.13;;;1.31;100.00
27840;BME280;15207;42.182;24.308;2023-12-20T00:25:25;99639.59;;;0.98;100.00
27840;BME280;15207;42.182;24.308;2023-12-20T00:27:51;99642.09;;;0.76;100.00
27840;BME280;15207;42.182;24.308;2023-12-20T00:30:16;99632.31;;;1.05;100.00
27840;BME280;15207;42.182;24.308;2023-12-20T00:32:42;99632.59;;;0.97;100.00
27840;BME280;15207;42.182;24.308;2023-12-20T00:35:14;99622.03;;;1.23;100.00
27840;BME280;15207;42.182;24.308;2023-12-20T00:37:39;99627.88;;;1.07;100.00
27840;BME280;15207;42.182;24.308;2023-12-20T00:40:06;99616.19;;;0.89;100.00
27840;BME280;15207;42.182;24.308;2023-12-20T00:42:33;99622.72;;;0.77;100.00
27840;BME280;15207;42.182;24.308;2023-12-20T00:44:59;99623.78;;;0.71;100.00
27840;BME280;15207;42.182;24.308;2023-12-20T00:47:25;99627.03;;;0.79;100.00
27840;BME280;15207;42.182;24.308;2023-12-20T00:49:50;99615.25;;;0.90;100.00
27840;BME280;15207;42.182;24.308;2023-12-20T00:52:15;99615.50;;;0.82;100.00
27840;BME280;15207;42.182;24.308;2023-12-20T00:54:42;99620.22;;;0.45;100.00
27840;BME280;15207;42.182;24.308;2023-12-20T00:57:08;99619.72;;;0.34;100.00
27840;BME280;15207;42.182;24.308;2023-12-20T00:59:34;99616.34;;;0.57;100.00
27840;BME280;15207;42.182;24.308;2023-12-20T01:01:59;99623.47;;;0.54;100.00
27840;BME280;15207;42.182;24.308;2023-12-20T01:04:24;99611.25;;;0.78;100.00
27840;BME280;15207;42.182;24.308;2023-12-20T01:06:50;99607.38;;;0.88;100.00
27840;BME280;15207;42.182;24.308;2023-12-20T01:09:15;99599.09;;;0.47;100.00
27840;BME280;15207;42.182;24.308;2023-12-20T01:11:40;99587.63;;;0.75;100.00
27840;BME280;15207;42.182;24.308;2023-12-20T01:14:06;99586.72;;;0.76;100.00
27840;BME280;15207;42.182;24.308;2023-12-20T01:16:31;99588.72;;;1.20;100.00
27840;BME280;15207;42.182;24.308;2023-12-20T01:18:57;99583.72;;;1.12;100.00
27840;BME280;15207;42.182;24.308;2023-12-20T01:21:23;99588.13;;;0.86;100.00
27840;BME280;15207;42.182;24.308;2023-12-20T01:23:49;99583.88;;;0.82;100.00
27840;BME280;15207;42.182;24.308;2023-12-20T01:26:14;99581.84;;;0.63;100.00
27840;BME280;15207;42.182;24.308;2023-12-20T01:28:40;99587.28;;;0.59;100.00
27840;BME280;15207;42.182;24.308;2023-12-20T01:31:05;99579.47;;;0.56;100.00
27840;BME280;15207;42.182;24.308;2023-12-20T01:33:31;99568.88;;;0.57;100.00
27840;BME280;15207;42.182;24.308;2023-12-20T01:35:56;99562.34;;;0.69;100.00
27840;BME280;15207;42.182;24.308;2023-12-20T01:38:22;99557.16;;;0.66;100.00
27840;BME280;15207;42.182;24.308;2023-12-20T01:40:47;99555.22;;;0.71;100.00
27840;BME280;15207;42.182;24.308;2023-12-20T01:43:13;99546.94;;;0.82;100.00
27840;BME280;15207;42.182;24.308;2023-12-20T01:45:38;99542.41;;;1.11;100.00
27840;BME280;15207;42.182;24.308;2023-12-20T01:48:04;99541.56;;;0.60;100.00
27840;BME280;15207;42.182;24.308;2023-12-20T01:50:31;99543.81;;;0.71;100.00
27840;BME280;15207;42.182;24.308;2023-12-20T01:52:58;99531.88;;;0.86;100.00
27840;BME280;15207;42.182;24.308;2023-12-20T01:55:25;99516.78;;;0.89;100.00
27840;BME280;15207;42.182;24.308;2023-12-20T01:57:51;99521.75;;;0.99;100.00
27840;BME280;15207;42.182;24.308;2023-12-20T02:00:17;99513.47;;;0.59;100.00
27840;BME280;15207;42.182;24.308;2023-12-20T02:02:44;99515.59;;;0.47;100.00
27840;BME280;15207;42.182;24.308;2023-12-20T02:05:10;99516.47;;;0.21;100.00
27840;BME280;15207;42.182;24.308;2023-12-20T02:07:36;99503.81;;;0.32;100.00
27840;BME280;15207;42.182;24.308;2023-12-20T02:10:03;99504.16;;;0.48;100.00
27840;BME280;15207;42.182;24.308;2023-12-20T02:12:32;99505.94;;;0.21;100.00
27840;BME280;15207;42.182;24.308;2023-12-20T02:14:57;99510.97;;;0.29;100.00
27840;BME280;15207;42.182;24.308;2023-12-20T02:17:23;99499.69;;;0.50;100.00
27840;BME280;15207;42.182;24.308;2023-12-20T02:19:49;99504.06;;;0.50;100.00
27840;BME280;15207;42.182;24.308;2023-12-20T02:22:15;99485.91;;;0.68;100.00
27840;BME280;15207;42.182;24.308;2023-12-20T02:24:40;99485.47;;;0.80;100.00
27840;BME280;15207;42.182;24.308;2023-12-20T02:27:07;99487.81;;;0.64;100.00
27840;BME280;15207;42.182;24.308;2023-12-20T02:29:32;99486.28;;;0.57;100.00
27840;BME280;15207;42.182;24.308;2023-12-20T02:31:58;99486.78;;;0.43;100.00
27840;BME280;15207;42.182;24.308;2023-12-20T02:34:23;99491.56;;;0.57;100.00
27840;BME280;15207;42.182;24.308;2023-12-20T02:36:49;99481.66;;;0.63;100.00
27840;BME280;15207;42.182;24.308;2023-12-20T02:39:14;99484.31;;;0.38;100.00
27840;BME280;15207;42.182;24.308;2023-12-20T02:41:39;99480.56;;;0.18;100.00
27840;BME280;15207;42.182;24.308;2023-12-20T02:44:05;99482.94;;;-0.30;100.00
27840;BME280;15207;42.182;24.308;2023-12-20T02:46:30;99479.03;;;0.11;100.00
27840;BME280;15207;42.182;24.308;2023-12-20T02:48:55;99483.06;;;0.21;100.00
27840;BME280;15207;42.182;24.308;2023-12-20T02:51:21;99473.94;;;0.32;100.00
27840;BME280;15207;42.182;24.308;2023-12-20T02:53:46;99468.22;;;0.19;100.00
27840;BME280;15207;42.182;24.308;2023-12-20T02:56:11;99459.09;;;0.29;100.00
27840;BME280;15207;42.182;24.308;2023-12-20T02:58:37;99460.28;;;0.20;100.00
27840;BME280;15207;42.182;24.308;2023-12-20T03:01:03;99460.50;;;0.14;100.00
27840;BME280;15207;42.182;24.308;2023-12-20T03:03:28;99463.78;;;0.21;100.00
27840;BME280;15207;42.182;24.308;2023-12-20T03:05:53;99452.69;;;-0.16;100.00
27840;BME280;15207;42.182;24.308;2023-12-20T03:08:19;99455.44;;;0.08;100.00
27840;BME280;15207;42.182;24.308;2023-12-20T03:10:44;99455.81;;;0.22;100.00
27840;BME280;15207;42.182;24.308;2023-12-20T03:13:10;99462.31;;;0.39;100.00
27840;BME280;15207;42.182;24.308;2023-12-20T03:15:35;99454.19;;;0.45;100.00
27840;BME280;15207;42.182;24.308;2023-12-20T03:18:01;99457.03;;;0.39;100.00
27840;BME280;15207;42.182;24.308;2023-12-20T03:20:26;99459.88;;;0.58;100.00
27840;BME280;15207;42.182;24.308;2023-12-20T03:22:52;99453.72;;;0.58;100.00
27840;BME280;15207;42.182;24.308;2023-12-20T03:25:17;99452.28;;;0.74;100.00
27840;BME280;15207;42.182;24.308;2023-12-20T03:27:42;99449.59;;;0.50;100.00
27840;BME280;15207;42.182;24.308;2023-12-20T03:30:08;99450.31;;;0.30;100.00
27840;BME280;15207;42.182;24.308;2023-12-20T03:32:34;99447.97;;;0.21;100.00
27840;BME280;15207;42.182;24.308;2023-12-20T03:34:59;99445.97;;;0.28;100.00
27840;BME280;15207;42.182;24.308;2023-12-20T03:37:25;99447.78;;;0.27;100.00
27840;BME280;15207;42.182;24.308;2023-12-20T03:39:50;99440.66;;;0.29;100.00
27840;BME280;15207;42.182;24.308;2023-12-20T03:42:15;99438.81;;;0.33;100.00
27840;BME280;15207;42.182;24.308;2023-12-20T03:44:41;99446.97;;;0.50;100.00
27840;BME280;15207;42.182;24.308;2023-12-20T03:47:06;99451.31;;;0.26;100.00
27840;BME280;15207;42.182;24.308;2023-12-20T03:49:31;99446.84;;;0.28;100.00
27840;BME280;15207;42.182;24.308;2023-12-20T03:51:57;99454.97;;;-0.05;100.00
27840;BME280;15207;42.182;24.308;2023-12-20T03:54:22;99454.31;;;-0.12;100.00
27840;BME280;15207;42.182;24.308;2023-12-20T03:56:48;99454.56;;;-0.20;100.00
27840;BME280;15207;42.182;24.308;2023-12-20T03:59:13;99443.63;;;-0.07;100.00
27840;BME280;15207;42.182;24.308;2023-12-20T04:01:43;99437.84;;;0.08;100.00
27840;BME280;15207;42.182;24.308;2023-12-20T04:04:09;99434.19;;;0.12;100.00
27840;BME280;15207;42.182;24.308;2023-12-20T04:06:34;99440.44;;;0.10;100.00
27840;BME280;15207;42.182;24.308;2023-12-20T04:09:00;99434.56;;;-0.25;100.00
27840;BME280;15207;42.182;24.308;2023-12-20T04:11:25;99436.44;;;-0.29;100.00
27840;BME280;15207;42.182;24.308;2023-12-20T04:13:50;99436.22;;;-0.23;100.00
27840;BME280;15207;42.182;24.308;2023-12-20T04:16:16;99442.69;;;-0.33;100.00
27840;BME280;15207;42.182;24.308;2023-12-20T04:18:41;99436.09;;;-0.47;100.00
27840;BME280;15207;42.182;24.308;2023-12-20T04:21:06;99443.03;;;-0.44;100.00
27840;BME280;15207;42.182;24.308;2023-12-20T04:23:32;99435.97;;;-0.42;100.00
27840;BME280;15207;42.182;24.308;2023-12-20T04:25:58;99427.75;;;-0.33;100.00
27840;BME280;15207;42.182;24.308;2023-12-20T04:28:23;99428.28;;;-0.21;100.00
27840;BME280;15207;42.182;24.308;2023-12-20T04:30:49;99427.22;;;-0.16;100.00
27840;BME280;15207;42.182;24.308;2023-12-20T04:33:14;99428.94;;;-0.15;100.00
27840;BME280;15207;42.182;24.308;2023-12-20T04:35:40;99419.66;;;0.01;100.00
27840;BME280;15207;42.182;24.308;2023-12-20T04:38:06;99409.63;;;0.12;100.00
27840;BME280;15207;42.182;24.308;2023-12-20T04:40:32;99417.25;;;0.20;100.00
27840;BME280;15207;42.182;24.308;2023-12-20T04:42:57;99414.31;;;0.29;100.00
27840;BME280;15207;42.182;24.308;2023-12-20T04:45:22;99409.97;;;0.28;100.00
27840;BME280;15207;42.182;24.308;2023-12-20T04:47:50;99414.66;;;-0.07;100.00
27840;BME280;15207;42.182;24.308;2023-12-20T04:50:16;99400.78;;;-0.12;100.00
27840;BME280;15207;42.182;24.308;2023-12-20T04:52:41;99387.69;;;0.11;100.00
27840;BME280;15207;42.182;24.308;2023-12-20T04:55:07;99389.53;;;0.35;100.00
27840;BME280;15207;42.182;24.308;2023-12-20T04:57:33;99395.69;;;0.08;100.00
27840;BME280;15207;42.182;24.308;2023-12-20T04:59:59;99400.31;;;0.02;100.00
27840;BME280;15207;42.182;24.308;2023-12-20T05:02:25;99402.66;;;-0.16;100.00
27840;BME280;15207;42.182;24.308;2023-12-20T05:04:51;99391.75;;;-0.05;100.00
27840;BME280;15207;42.182;24.308;2023-12-20T05:07:16;99390.66;;;0.02;100.00
27840;BME280;15207;42.182;24.308;2023-12-20T05:09:42;99380.81;;;0.07;100.00
27840;BME280;15207;42.182;24.308;2023-12-20T05:12:07;99383.34;;;0.10;100.00
27840;BME280;15207;42.182;24.308;2023-12-20T05:14:33;99373.28;;;0.22;100.00
27840;BME280;15207;42.182;24.308;2023-12-20T05:16:58;99379.09;;;0.32;100.00
27840;BME280;15207;42.182;24.308;2023-12-20T05:19:24;99380.75;;;0.34;100.00
27840;BME280;15207;42.182;24.308;2023-12-20T05:21:49;99376.91;;;0.19;100.00
27840;BME280;15207;42.182;24.308;2023-12-20T05:24:15;99372.19;;;0.28;100.00
27840;BME280;15207;42.182;24.308;2023-12-20T05:26:40;99373.25;;;0.23;100.00
27840;BME280;15207;42.182;24.308;2023-12-20T05:29:05;99364.47;;;0.23;100.00
27840;BME280;15207;42.182;24.308;2023-12-20T05:31:31;99364.78;;;0.13;100.00
27840;BME280;15207;42.182;24.308;2023-12-20T05:33:56;99365.28;;;-0.01;100.00
27840;BME280;15207;42.182;24.308;2023-12-20T05:36:22;99363.53;;;0.00;100.00
27840;BME280;15207;42.182;24.308;2023-12-20T05:38:47;99358.13;;;0.03;100.00
27840;BME280;15207;42.182;24.308;2023-12-20T05:41:13;99365.38;;;-0.04;100.00
27840;BME280;15207;42.182;24.308;2023-12-20T05:43:39;99361.38;;;0.11;100.00
27840;BME280;15207;42.182;24.308;2023-12-20T05:46:04;99356.25;;;0.07;100.00
27840;BME280;15207;42.182;24.308;2023-12-20T05:48:30;99357.91;;;0.09;100.00
27840;BME280;15207;42.182;24.308;2023-12-20T05:50:55;99358.59;;;0.15;100.00
27840;BME280;15207;42.182;24.308;2023-12-20T05:53:21;99356.38;;;0.04;100.00
27840;BME280;15207;42.182;24.308;2023-12-20T05:55:46;99355.81;;;0.19;100.00
27840;BME280;15207;42.182;24.308;2023-12-20T05:58:12;99355.28;;;0.09;100.00
27840;BME280;15207;42.182;24.308;2023-12-20T06:00:38;99347.69;;;0.25;100.00
27840;BME280;15207;42.182;24.308;2023-12-20T06:03:03;99351.09;;;0.04;100.00
27840;BME280;15207;42.182;24.308;2023-12-20T06:05:30;99348.94;;;0.15;100.00
27840;BME280;15207;42.182;24.308;2023-12-20T06:07:55;99337.75;;;0.34;100.00
27840;BME280;15207;42.182;24.308;2023-12-20T06:10:26;99350.31;;;0.25;100.00
27840;BME280;15207;42.182;24.308;2023-12-20T06:12:51;99341.47;;;0.03;100.00
27840;BME280;15207;42.182;24.308;2023-12-20T06:15:17;99339.47;;;0.09;100.00
27840;BME280;15207;42.182;24.308;2023-12-20T06:17:42;99336.97;;;0.06;100.00
27840;BME280;15207;42.182;24.308;2023-12-20T06:20:08;99330.44;;;-0.09;100.00
27840;BME280;15207;42.182;24.308;2023-12-20T06:22:34;99330.47;;;-0.10;100.00
27840;BME280;15207;42.182;24.308;2023-12-20T06:25:00;99329.47;;;-0.06;100.00
27840;BME280;15207;42.182;24.308;2023-12-20T06:27:25;99327.50;;;-0.25;100.00
27840;BME280;15207;42.182;24.308;2023-12-20T06:29:51;99335.31;;;-0.23;100.00
27840;BME280;15207;42.182;24.308;2023-12-20T06:32:16;99340.75;;;-0.28;100.00
27840;BME280;15207;42.182;24.308;2023-12-20T06:34:41;99338.50;;;-0.14;100.00
27840;BME280;15207;42.182;24.308;2023-12-20T06:37:07;99338.84;;;0.03;100.00
27840;BME280;15207;42.182;24.308;2023-12-20T06:39:32;99339.53;;;0.08;100.00
27840;BME280;15207;42.182;24.308;2023-12-20T06:41:59;99345.06;;;0.25;100.00
27840;BME280;15207;42.182;24.308;2023-12-20T06:44:25;99344.47;;;0.17;100.00
27840;BME280;15207;42.182;24.308;2023-12-20T06:46:50;99331.31;;;0.41;100.00
27840;BME280;15207;42.182;24.308;2023-12-20T06:49:15;99323.03;;;0.76;100.00
27840;BME280;15207;42.182;24.308;2023-12-20T06:51:40;99317.69;;;1.00;100.00
27840;BME280;15207;42.182;24.308;2023-12-20T06:54:06;99321.78;;;1.09;100.00
27840;BME280;15207;42.182;24.308;2023-12-20T06:56:33;99322.88;;;1.25;100.00
27840;BME280;15207;42.182;24.308;2023-12-20T06:58:58;99320.69;;;1.35;100.00
27840;BME280;15207;42.182;24.308;2023-12-20T07:01:24;99309.00;;;1.42;100.00
27840;BME280;15207;42.182;24.308;2023-12-20T07:03:49;99310.28;;;1.32;100.00
27840;BME280;15207;42.182;24.308;2023-12-20T07:06:14;99305.91;;;1.53;100.00
27840;BME280;15207;42.182;24.308;2023-12-20T07:08:41;99313.09;;;1.50;100.00
27840;BME280;15207;42.182;24.308;2023-12-20T07:11:07;99305.94;;;1.74;100.00
27840;BME280;15207;42.182;24.308;2023-12-20T07:13:32;99309.41;;;1.95;100.00
27840;BME280;15207;42.182;24.308;2023-12-20T07:15:58;99301.63;;;1.92;100.00
27840;BME280;15207;42.182;24.308;2023-12-20T07:18:23;99298.72;;;1.98;100.00
27840;BME280;15207;42.182;24.308;2023-12-20T07:20:49;99296.84;;;2.01;100.00
27840;BME280;15207;42.182;24.308;2023-12-20T07:23:14;99299.44;;;2.02;100.00
27840;BME280;15207;42.182;24.308;2023-12-20T07:25:40;99300.88;;;2.30;100.00
27840;BME280;15207;42.182;24.308;2023-12-20T07:28:05;99302.59;;;2.31;100.00
27840;BME280;15207;42.182;24.308;2023-12-20T07:30:31;99303.94;;;2.40;100.00
27840;BME280;15207;42.182;24.308;2023-12-20T07:32:56;99289.19;;;2.55;100.00
27840;BME280;15207;42.182;24.308;2023-12-20T07:35:23;99289.25;;;2.73;100.00
27840;BME280;15207;42.182;24.308;2023-12-20T07:37:48;99288.88;;;3.00;100.00
27840;BME280;15207;42.182;24.308;2023-12-20T07:40:14;99297.03;;;2.95;100.00
27840;BME280;15207;42.182;24.308;2023-12-20T07:42:42;99288.06;;;3.17;100.00
27840;BME280;15207;42.182;24.308;2023-12-20T07:45:07;99287.63;;;3.26;99.34
27840;BME280;15207;42.182;24.308;2023-12-20T07:47:33;99282.72;;;3.36;99.38
27840;BME280;15207;42.182;24.308;2023-12-20T07:49:58;99286.94;;;3.58;98.71
27840;BME280;15207;42.182;24.308;2023-12-20T07:52:23;99278.69;;;3.82;97.32
27840;BME280;15207;42.182;24.308;2023-12-20T07:54:49;99278.69;;;4.16;95.88
27840;BME280;15207;42.182;24.308;2023-12-20T07:57:14;99278.34;;;4.06;94.18
27840;BME280;15207;42.182;24.308;2023-12-20T07:59:39;99280.22;;;4.38;92.74
27840;BME280;15207;42.182;24.308;2023-12-20T08:02:05;99276.25;;;4.29;93.61
27840;BME280;15207;42.182;24.308;2023-12-20T08:04:31;99275.63;;;4.23;94.09
27840;BME280;15207;42.182;24.308;2023-12-20T08:06:57;99277.03;;;4.31;94.15
27840;BME280;15207;42.182;24.308;2023-12-20T08:09:23;99272.88;;;4.43;93.62
27840;BME280;15207;42.182;24.308;2023-12-20T08:11:48;99271.09;;;4.59;92.64
27840;BME280;15207;42.182;24.308;2023-12-20T08:14:16;99267.50;;;4.44;93.26
27840;BME280;15207;42.182;24.308;2023-12-20T08:16:41;99260.91;;;4.52;93.71
27840;BME280;15207;42.182;24.308;2023-12-20T08:19:06;99266.06;;;4.21;95.16
27840;BME280;15207;42.182;24.308;2023-12-20T08:21:32;99270.84;;;4.48;95.09
27840;BME280;15207;42.182;24.308;2023-12-20T08:23:58;99262.50;;;4.22;95.44
27840;BME280;15207;42.182;24.308;2023-12-20T08:26:25;99262.16;;;4.28;95.98
27840;BME280;15207;42.182;24.308;2023-12-20T08:28:51;99255.09;;;4.61;95.51
27840;BME280;15207;42.182;24.308;2023-12-20T08:31:17;99239.59;;;4.69;95.62
27840;BME280;15207;42.182;24.308;2023-12-20T08:33:44;99238.38;;;4.59;95.85
27840;BME280;15207;42.182;24.308;2023-12-20T08:36:09;99245.75;;;4.54;96.58
27840;BME280;15207;42.182;24.308;2023-12-20T08:38:35;99233.44;;;4.53;96.80
27840;BME280;15207;42.182;24.308;2023-12-20T08:41:01;99233.09;;;4.59;96.98
27840;BME280;15207;42.182;24.308;2023-12-20T08:43:28;99235.25;;;4.52;95.88
27840;BME280;15207;42.182;24.308;2023-12-20T08:45:54;99233.78;;;4.62;95.76
27840;BME280;15207;42.182;24.308;2023-12-20T08:48:19;99217.09;;;4.60;94.76
27840;BME280;15207;42.182;24.308;2023-12-20T08:50:44;99211.34;;;4.68;94.53
27840;BME280;15207;42.182;24.308;2023-12-20T08:53:10;99209.13;;;4.93;94.55
27840;BME280;15207;42.182;24.308;2023-12-20T08:55:36;99204.78;;;5.22;92.39
27840;BME280;15207;42.182;24.308;2023-12-20T08:58:01;99194.00;;;5.25;92.27
27840;BME280;15207;42.182;24.308;2023-12-20T09:00:27;99188.50;;;5.43;92.00
27840;BME280;15207;42.182;24.308;2023-12-20T09:02:53;99180.75;;;5.54;91.26
27840;BME280;15207;42.182;24.308;2023-12-20T09:05:19;99185.81;;;5.74;90.31
27840;BME280;15207;42.182;24.308;2023-12-20T09:07:45;99175.78;;;5.79;89.82
27840;BME280;15207;42.182;24.308;2023-12-20T09:10:10;99178.50;;;5.77;89.98
27840;BME280;15207;42.182;24.308;2023-12-20T09:12:35;99177.91;;;5.58;91.75
27840;BME280;15207;42.182;24.308;2023-12-20T09:15:05;99170.38;;;5.80;92.26
27840;BME280;15207;42.182;24.308;2023-12-20T09:17:30;99161.53;;;6.24;91.40
27840;BME280;15207;42.182;24.308;2023-12-20T09:19:56;99157.81;;;6.41;89.68
27840;BME280;15207;42.182;24.308;2023-12-20T09:22:21;99150.91;;;6.66;89.02
27840;BME280;15207;42.182;24.308;2023-12-20T09:24:47;99141.19;;;6.92;86.54
27840;BME280;15207;42.182;24.308;2023-12-20T09:27:12;99133.56;;;7.13;85.88
27840;BME280;15207;42.182;24.308;2023-12-20T09:29:37;99128.25;;;7.26;84.73
27840;BME280;15207;42.182;24.308;2023-12-20T09:32:03;99120.16;;;7.28;84.22
27840;BME280;15207;42.182;24.308;2023-12-20T09:34:28;99112.81;;;7.45;81.62
27840;BME280;15207;42.182;24.308;2023-12-20T09:36:54;99107.19;;;7.49;80.30
27840;BME280;15207;42.182;24.308;2023-12-20T09:39:20;99105.13;;;7.66;79.20
27840;BME280;15207;42.182;24.308;2023-12-20T09:42:01;99104.22;;;8.17;78.38
27840;BME280;15207;42.182;24.308;2023-12-20T09:44:27;99096.25;;;8.04;76.89
27840;BME280;15207;42.182;24.308;2023-12-20T09:46:55;99097.59;;;8.47;76.41
27840;BME280;15207;42.182;24.308;2023-12-20T09:49:20;99090.31;;;8.50;74.05
27840;BME280;15207;42.182;24.308;2023-12-20T09:51:46;99085.84;;;8.50;72.95
27840;BME280;15207;42.182;24.308;2023-12-20T09:54:16;99077.66;;;8.89;71.90
27840;BME280;15207;42.182;24.308;2023-12-20T09:56:42;99073.94;;;8.67;73.50
27840;BME280;15207;42.182;24.308;2023-12-20T09:59:07;99068.22;;;8.96;70.89
27840;BME280;15207;42.182;24.308;2023-12-20T10:01:34;99064.81;;;8.94;71.52
27840;BME280;15207;42.182;24.308;2023-12-20T10:04:00;99055.69;;;8.85;72.29
27840;BME280;15207;42.182;24.308;2023-12-20T10:06:27;99049.78;;;9.16;69.34
27840;BME280;15207;42.182;24.308;2023-12-20T10:08:53;99046.56;;;9.24;68.78
27840;BME280;15207;42.182;24.308;2023-12-20T10:11:18;99047.16;;;9.28;69.24
27840;BME280;15207;42.182;24.308;2023-12-20T10:13:47;99038.78;;;9.55;69.05
27840;BME280;15207;42.182;24.308;2023-12-20T10:16:13;99036.00;;;9.68;67.90
27840;BME280;15207;42.182;24.308;2023-12-20T10:18:39;99036.47;;;9.73;67.79
27840;BME280;15207;42.182;24.308;2023-12-20T10:21:05;99025.63;;;9.86;65.80
27840;BME280;15207;42.182;24.308;2023-12-20T10:23:31;99023.22;;;9.37;67.08
27840;BME280;15207;42.182;24.308;2023-12-20T10:26:00;99019.56;;;9.38;66.59
27840;BME280;15207;42.182;24.308;2023-12-20T10:28:26;99015.09;;;9.28;68.32
27840;BME280;15207;42.182;24.308;2023-12-20T10:30:54;99015.53;;;9.10;70.53
27840;BME280;15207;42.182;24.308;2023-12-20T10:33:27;99007.03;;;9.05;69.76
27840;BME280;15207;42.182;24.308;2023-12-20T10:35:55;98997.22;;;9.17;69.61
27840;BME280;15207;42.182;24.308;2023-12-20T10:38:20;98997.03;;;8.84;71.20
27840;BME280;15207;42.182;24.308;2023-12-20T10:40:46;98988.34;;;9.05;71.13
27840;BME280;15207;42.182;24.308;2023-12-20T10:43:12;98973.03;;;9.41;68.68
27840;BME280;15207;42.182;24.308;2023-12-20T10:45:37;98980.44;;;9.03;70.72
27840;BME280;15207;42.182;24.308;2023-12-20T10:48:03;98961.75;;;9.49;69.89
27840;BME280;15207;42.182;24.308;2023-12-20T10:50:30;98960.91;;;9.48;69.69
27840;BME280;15207;42.182;24.308;2023-12-20T10:52:56;98948.03;;;9.42;70.58
27840;BME280;15207;42.182;24.308;2023-12-20T10:55:22;98943.91;;;9.38;70.48
27840;BME280;15207;42.182;24.308;2023-12-20T10:57:50;98935.13;;;9.59;69.61
27840;BME280;15207;42.182;24.308;2023-12-20T11:00:16;98925.47;;;9.90;66.39
27840;BME280;15207;42.182;24.308;2023-12-20T11:02:42;98930.28;;;9.97;67.18
27840;BME280;15207;42.182;24.308;2023-12-20T11:08:12;98930.81;;;10.23;65.56
27840;BME280;15207;42.182;24.308;2023-12-20T11:10:49;98917.75;;;10.30;64.59
27840;BME280;15207;42.182;24.308;2023-12-20T11:13:20;98919.28;;;10.44;64.97
27840;BME280;15207;42.182;24.308;2023-12-20T11:15:48;98915.41;;;10.04;64.74
27840;BME280;15207;42.182;24.308;2023-12-20T11:18:13;98907.38;;;10.04;64.25
27840;BME280;15207;42.182;24.308;2023-12-20T11:20:41;98904.47;;;10.07;63.19
27840;BME280;15207;42.182;24.308;2023-12-20T11:23:08;98902.19;;;10.24;63.02
27840;BME280;15207;42.182;24.308;2023-12-20T11:25:46;98894.75;;;10.06;62.30
27840;BME280;15207;42.182;24.308;2023-12-20T11:28:12;98889.94;;;9.88;64.33
27840;BME280;15207;42.182;24.308;2023-12-20T11:33:07;98877.88;;;10.27;62.58
27840;BME280;15207;42.182;24.308;2023-12-20T11:35:33;98882.47;;;10.57;61.47
27840;BME280;15207;42.182;24.308;2023-12-20T11:38:00;98870.88;;;10.78;61.21
27840;BME280;15207;42.182;24.308;2023-12-20T11:40:25;98868.81;;;10.61;59.40
27840;BME280;15207;42.182;24.308;2023-12-20T11:42:51;98861.41;;;10.74;60.62
27840;BME280;15207;42.182;24.308;2023-12-20T11:45:21;98858.53;;;10.66;59.96
27840;BME280;15207;42.182;24.308;2023-12-20T11:47:48;98857.25;;;10.39;60.54
27840;BME280;15207;42.182;24.308;2023-12-20T11:50:17;98853.66;;;10.28;60.52
27840;BME280;15207;42.182;24.308;2023-12-20T11:52:43;98851.50;;;10.65;59.88
27840;BME280;15207;42.182;24.308;2023-12-20T11:55:09;98855.13;;;10.85;59.49
27840;BME280;15207;42.182;24.308;2023-12-20T11:57:36;98849.34;;;10.90;60.57
27840;BME280;15207;42.182;24.308;2023-12-20T12:00:03;98831.53;;;10.48;59.12
27840;BME280;15207;42.182;24.308;2023-12-20T12:02:30;98826.94;;;10.60;59.15
27840;BME280;15207;42.182;24.308;2023-12-20T12:04:55;98833.69;;;10.85;58.54
27840;BME280;15207;42.182;24.308;2023-12-20T12:07:22;98829.72;;;10.48;58.52
27840;BME280;15207;42.182;24.308;2023-12-20T12:09:48;98831.47;;;10.38;59.04
27840;BME280;15207;42.182;24.308;2023-12-20T12:12:13;98821.94;;;10.45;61.93
27840;BME280;15207;42.182;24.308;2023-12-20T12:14:39;98820.28;;;10.54;62.22
27840;BME280;15207;42.182;24.308;2023-12-20T12:17:13;98811.88;;;10.58;62.87
27840;BME280;15207;42.182;24.308;2023-12-20T12:19:39;98811.59;;;10.62;63.29
27840;BME280;15207;42.182;24.308;2023-12-20T12:22:06;98811.53;;;10.73;66.50
27840;BME280;15207;42.182;24.308;2023-12-20T12:24:46;98801.38;;;10.77;69.67
27840;BME280;15207;42.182;24.308;2023-12-20T12:27:15;98805.63;;;10.79;67.86
27840;BME280;15207;42.182;24.308;2023-12-20T12:29:42;98803.06;;;10.78;66.93
27840;BME280;15207;42.182;24.308;2023-12-20T12:32:24;98808.41;;;10.78;66.65
27840;BME280;15207;42.182;24.308;2023-12-20T12:34:50;98800.69;;;10.75;67.59
27840;BME280;15207;42.182;24.308;2023-12-20T12:37:15;98804.72;;;10.69;69.19
27840;BME280;15207;42.182;24.308;2023-12-20T12:39:41;98802.59;;;10.63;67.44
27840;BME280;15207;42.182;24.308;2023-12-20T12:42:06;98791.25;;;10.49;69.00
27840;BME280;15207;42.182;24.308;2023-12-20T12:44:31;98799.03;;;10.52;69.29
27840;BME280;15207;42.182;24.308;2023-12-20T12:46:57;98788.63;;;10.38;68.98
27840;BME280;15207;42.182;24.308;2023-12-20T12:49:22;98785.22;;;10.36;69.63
27840;BME280;15207;42.182;24.308;2023-12-20T12:51:48;98784.25;;;10.37;70.94